Tufão UTOR 2013: trajetória, intensidade e histórico
18/08/2013, 06:00:00
8/08/2013, 06:00:00 – 18/08/2013, 06:00:00
Trajetória histórica
Acompanhe a evolução e o deslocamento de Tufão UTOR em 2013, com a trajetória completa registrada, ventos máximos sustentados de 130 nós, pressão central mínima e cronologia detalhada.
| Data | Hora | Tipo | Ventokm/h | PressãohPa |
|---|---|---|---|---|
| 18/08 | 06:00 | TDDepressão tropical | 35 | 998 |
| 18/08 | 03:00 | TDDepressão tropical | 40 | 997 |
| 18/08 | 00:00 | TDDepressão tropical | 45 | 998 |
| 17/08 | 21:00 | TDDepressão tropical | 50 | 995 |
| 17/08 | 18:00 | TDDepressão tropical | 55 | 996 |
| 17/08 | 15:00 | TDDepressão tropical | 55 | 994 |
| 17/08 | 12:00 | TDDepressão tropical | 55 | 996 |
| 17/08 | 09:00 | TDDepressão tropical | 55 | 994 |
| 17/08 | 06:00 | TDDepressão tropical | 55 | 996 |
| 17/08 | 03:00 | TDDepressão tropical | 55 | 994 |
| 17/08 | 00:00 | TDDepressão tropical | 55 | 996 |
| 16/08 | 21:00 | TDDepressão tropical | 55 | 994 |
| 16/08 | 18:00 | TDDepressão tropical | 55 | 996 |
| 16/08 | 15:00 | TDDepressão tropical | 55 | 994 |
| 16/08 | 12:00 | TDDepressão tropical | 55 | 996 |
| 16/08 | 09:00 | TDDepressão tropical | 55 | 994 |
| 16/08 | 06:00 | TDDepressão tropical | 55 | 996 |
| 16/08 | 03:00 | TDDepressão tropical | 55 | 994 |
| 16/08 | 00:00 | TDDepressão tropical | 55 | 996 |
| 15/08 | 21:00 | TDDepressão tropical | 55 | 994 |
| 15/08 | 18:00 | TDDepressão tropical | 55 | 996 |
| 15/08 | 15:00 | EXCiclone extratropical | 55 | 994 |
| 15/08 | 12:00 | TDDepressão tropical | 55 | 1000 |
| 15/08 | 09:00 | EXCiclone extratropical | 60 | 998 |
| 15/08 | 06:00 | TSTempestade tropical | 65 | 996 |
| 15/08 | 03:00 | TSTempestade tropical | 75 | 993 |
| 15/08 | 00:00 | TSTempestade tropical | 85 | 989 |
| 14/08 | 21:00 | TSTempestade tropical | 95 | 986 |
| 14/08 | 18:00 | TSTempestade tropical | 100 | 982 |
| 14/08 | 15:00 | TTufão | 120 | 975 |
| 14/08 | 12:00 | STSTempestade tropical severa | 140 | 967 |
| 14/08 | 09:00 | TTufão | 150 | 963 |
| 14/08 | 06:00 | TTufão | 155 | 959 |
| 14/08 | 03:00 | TTufão | 165 | 958 |
| 14/08 | 00:00 | TTufão | 165 | 956 |
| 13/08 | 21:00 | TTufão | 170 | 954 |
| 13/08 | 18:00 | TTufão | 175 | 952 |
| 13/08 | 15:00 | TTufão | 175 | 952 |
| 13/08 | 12:00 | TTufão | 175 | 952 |
| 13/08 | 09:00 | TTufão | 180 | 950 |
| 13/08 | 06:00 | STSupertufão | 185 | 948 |
| 13/08 | 03:00 | TTufão | 180 | 950 |
| 13/08 | 00:00 | TTufão | 175 | 952 |
| 12/08 | 21:00 | TTufão | 170 | 954 |
| 12/08 | 18:00 | TTufão | 165 | 956 |
| 12/08 | 15:00 | TTufão | 165 | 958 |
| 12/08 | 12:00 | TTufão | 155 | 959 |
| 12/08 | 09:00 | TTufão | 165 | 956 |
| 12/08 | 06:00 | TTufão | 175 | 952 |
| 12/08 | 03:00 | TTufão | 175 | 952 |
| 12/08 | 00:00 | TTufão | 175 | 952 |
| 11/08 | 21:00 | STSupertufão | 200 | 943 |
| 11/08 | 18:00 | STSupertufão | 220 | 933 |
| 11/08 | 15:00 | STSupertufão | 230 | 930 |
| 11/08 | 12:00 | STSupertufão | 240 | 926 |
| 11/08 | 09:00 | STSupertufão | 220 | 934 |
| 11/08 | 06:00 | STSupertufão | 205 | 941 |
| 11/08 | 03:00 | STSupertufão | 190 | 947 |
| 11/08 | 00:00 | TTufão | 175 | 952 |
| 10/08 | 21:00 | TTufão | 170 | 954 |
| 10/08 | 18:00 | TTufão | 165 | 956 |
| 10/08 | 15:00 | TTufão | 165 | 956 |
| 10/08 | 12:00 | TTufão | 165 | 956 |
| 10/08 | 09:00 | TTufão | 150 | 963 |
| 10/08 | 06:00 | TTufão | 130 | 970 |
| 10/08 | 03:00 | TSTempestade tropical | 115 | 976 |
| 10/08 | 00:00 | TSTempestade tropical | 100 | 982 |
| 09/08 | 21:00 | TSTempestade tropical | 95 | 986 |
| 09/08 | 18:00 | TSTempestade tropical | 85 | 989 |
| 09/08 | 15:00 | TSTempestade tropical | 75 | 993 |
| 09/08 | 12:00 | TDDepressão tropical | 65 | 996 |
| 09/08 | 09:00 | TDDepressão tropical | 60 | 998 |
| 09/08 | 06:00 | TDDepressão tropical | 55 | 1000 |
| 09/08 | 03:00 | TDDepressão tropical | 50 | 1002 |
| 09/08 | 00:00 | TDDepressão tropical | 45 | 1004 |
| 08/08 | 21:00 | DBPerturbação tropical | 45 | 1006 |
| 08/08 | 18:00 | TDDepressão tropical | 35 | 1007 |
| 08/08 | 15:00 | DBPerturbação tropical | 35 | 1006 |
| 08/08 | 12:00 | TDDepressão tropical | 35 | 1005 |
| 08/08 | 09:00 | DBPerturbação tropical | 35 | 1008 |
| 08/08 | 06:00 | DBPerturbação tropical | 30 | 1010 |
Cronologia de localização
81 Registos de localizaçãoTambém pode encontrar estas ferramentas úteis
A localização, a extensão e o estado de cada evento podem ser atualizados em momentos diferentes consoante a fonte. Confirme decisões importantes junto das autoridades oficiais de emergência.
Os registos de eventos provêm da NASA EONET e são complementados por registos de deslizamentos de terra do USGS FDSN. As análises e previsões de tempestades podem utilizar a NOAA NHC ou o JTWC, com registos históricos ATCF da UCAR/NCAR quando disponíveis. As imagens de satélite provêm da NASA Worldview/GIBS (GOES e Himawari) ou da EUMETSAT Meteosat, consoante a cobertura do mapa.
Fontes: NASA EONET · USGS · NOAA NHC · JTWC · UCAR/NCAR ATCF · NASA Worldview/GIBS · EUMETSAT Meteosat · OpenStreetMap contributors